Batavia, NY

6:02 AM EDT on September 22, 2014 (GMT -0400)
Violet Ln. | Change Station
CLOSE
Current Station
Personal Weather Station
Location: Batavia, NY
Elevation: 893 ft
Nearby Weather Stations

Elev 893 ft 43.01 °N, 78.15 °W | Updated 1 second ago

Overcast
Overcast
48.2 °F
Feels Like 45 °F
N
6.3
Wind Variable Wind from West
Gusts 8.7 mph

Today
High -- | Low -- °F
--% Chance of Precip.
Yesterday
High -- | Low -- °F
Precip. -- in
7:00 AM 7:10 PM
Waning Crescent, 3% visible
Pressure 29.93 in
Visibility 10.0 miles
Clouds Mostly Cloudy 2600 ft
Overcast 4700 ft
Windchill 45 °F
Dew Point 44 °F
Humidity 85%
Rainfall 0.08 in
Snow Depth Not available.
UV 0 out of 12
Pollen .50 out of 12
PM2.5 Good
Flu Activity Not available.
METAR KBUF 220954Z 32010KT 10SM BKN026 OVC047 10/06 A2993 RMK AO2 SLP135 T01000056

More Conditions Fewer Conditions

Pressure 29.93 in
Visibility 10.0 miles
Clouds Mostly Cloudy 2600 ft
Overcast 4700 ft
Windchill 45 °F
Dew Point 44 °F
Humidity 85%
Rainfall 0.08 in
Snow Depth Not available.
UV 0 out of 12
Pollen .50 out of 12
PM2.5 Good
Flu Activity Not available.
METAR KBUF 220954Z 32010KT 10SM BKN026 OVC047 10/06 A2993 RMK AO2 SLP135 T01000056

More Conditions Fewer Conditions

10-Day Weather Forecast

Almanac

Astronomy

Sep. 22, 2014 Rise Set
Actual Time 7:00 AM EDT 7:10 PM EDT
Civil Twilight 6:31 AM EDT 7:38 PM EDT
Nautical Twilight 5:58 AM EDT 8:11 PM EDT
Astronomical Twilight 5:24 AM EDT 8:45 PM EDT
Moon 5:25 AM EDT 6:17 PM EDT
Length of Visible Light 13h 06m
Length of Day
12h 10m
Tomorrow will be 2m 54s shorter.
Waning Crescent, 3% of the Moon is Illuminated
Today
Waning Crescent
Sep 24
New
Oct 1
First Quarter
Oct 8
Full
Oct 15
Last Quarter

Today's Extremes

State Highs State Lows

Community

WunderPhotos

Upload Photos

1,755,403 photos uploaded!

Nearby

Air Quality

  Air Quality AQ Index Pollutant
Yesterday Good
OZONE
Yesterday Good
PM2.5
Current Good
PM2.5
Monday Good
PM2.5
Monday Good
OZONE

Snow Depth

Station Depth Elevation
No new snow has been reported.

Earthquake Activity

City Distance Mag. Time & Date
No recent earthquake activity has been reported nearby.
Minimum magnitude displayed is 2.5.

Coastal Water Temperatures

Place Temperature
Buffalo, NY 66.0 °F

Nearby Weather Stations